Terminal Aerodrome Forecast
Issued by NWS Paducah, KY

Home | Current Version | Previous Version | Text Only | Print | Product List | Glossary On
Versions: 1 2 3 4 5 6 7 8 9 10 11 12 13 14 15 16 17
756
FTUS43 KPAH 141138
TAFPAH
TAF
KPAH 141138Z 1412/1512 00000KT P6SM BKN250
     FM141500 10004KT P6SM FEW070 BKN150
     FM141800 15005KT P6SM BKN070
     FM142200 15004KT P6SM -SN SCT030 OVC045
     FM150400 18007KT P6SM BKN080=

USA.gov is the U.S. government's official web portal to all federal, state and local government web resources and services.